createdAt,value
2019-02-21T00:00:07.354Z,6.30
2019-02-21T00:02:51.751Z,6.30
2019-02-21T00:05:34.462Z,6.30
2019-02-21T00:08:17.211Z,6.20
2019-02-21T00:10:59.722Z,6.00
2019-02-21T00:13:40.157Z,6.00
2019-02-21T00:16:29.505Z,5.90
2019-02-21T00:19:11.472Z,5.70
2019-02-21T00:21:54.146Z,5.60
2019-02-21T00:24:36.605Z,5.60
2019-02-21T00:27:18.693Z,5.60
2019-02-21T00:30:01.511Z,5.60
2019-02-21T00:32:45.140Z,5.60
2019-02-21T00:35:26.858Z,5.60
2019-02-21T00:38:08.845Z,5.60
2019-02-21T00:40:51.365Z,5.60
2019-02-21T00:43:34.114Z,5.50
2019-02-21T00:46:17.005Z,5.50
2019-02-21T00:48:59.569Z,5.40
2019-02-21T00:51:40.473Z,5.50
2019-02-21T00:57:37.394Z,5.60
2019-02-21T01:00:19.958Z,5.60
2019-02-21T01:03:02.026Z,5.70
2019-02-21T01:05:44.557Z,5.70
2019-02-21T01:08:27.388Z,5.70
2019-02-21T01:11:10.025Z,5.80
2019-02-21T01:13:52.630Z,5.80
2019-02-21T01:16:34.845Z,5.80
2019-02-21T01:19:17.665Z,5.80
2019-02-21T01:22:00.099Z,5.90
2019-02-21T01:24:42.525Z,5.80
2019-02-21T01:27:25.143Z,5.90
2019-02-21T01:30:06.882Z,5.90
2019-02-21T01:32:50.180Z,5.90
2019-02-21T01:35:32.213Z,6.00
2019-02-21T01:38:14.017Z,5.90
2019-02-21T01:40:57.129Z,6.00
2019-02-21T01:43:38.816Z,6.10
2019-02-21T01:46:19.277Z,6.10
2019-02-21T01:49:08.872Z,6.20
2019-02-21T01:51:57.181Z,6.20
2019-02-21T01:54:39.476Z,6.20
2019-02-21T01:57:21.717Z,6.20
2019-02-21T02:00:03.689Z,6.30
2019-02-21T02:02:46.581Z,6.30
2019-02-21T02:05:29.052Z,6.30
2019-02-21T02:08:11.579Z,6.30
2019-02-21T02:10:52.056Z,6.30
2019-02-21T02:13:34.094Z,6.30
2019-02-21T02:16:17.084Z,6.40
2019-02-21T02:18:59.030Z,6.40
2019-02-21T02:21:41.703Z,6.30
2019-02-21T02:24:24.425Z,6.30
2019-02-21T02:27:06.186Z,6.40
2019-02-21T02:29:47.941Z,6.50
2019-02-21T02:32:29.664Z,6.50
2019-02-21T02:35:12.375Z,6.50
2019-02-21T02:37:54.899Z,6.50
2019-02-21T02:40:37.617Z,6.50
2019-02-21T02:43:18.331Z,6.50
2019-02-21T02:46:00.973Z,6.60
2019-02-21T02:48:43.737Z,6.60
2019-02-21T02:51:26.273Z,6.70
2019-02-21T02:54:08.457Z,6.60
2019-02-21T02:56:50.520Z,6.60
2019-02-21T02:59:40.814Z,6.60
2019-02-21T03:02:16.096Z,6.70
2019-02-21T03:04:58.632Z,6.60
2019-02-21T03:07:40.894Z,6.70
2019-02-21T03:10:22.587Z,6.70
2019-02-21T03:13:04.458Z,6.70
2019-02-21T03:15:46.904Z,6.80
2019-02-21T03:18:29.221Z,6.90
2019-02-21T03:21:11.584Z,6.90
2019-02-21T03:23:54.176Z,6.90
2019-02-21T03:26:36.617Z,6.90
2019-02-21T03:29:19.395Z,6.90
2019-02-21T03:32:02.355Z,6.90
2019-02-21T03:34:44.349Z,6.80
2019-02-21T03:37:26.854Z,6.80
2019-02-21T03:40:08.596Z,6.80
2019-02-21T03:42:50.597Z,6.90
2019-02-21T03:45:33.072Z,6.90
2019-02-21T03:48:16.923Z,6.90
2019-02-21T03:50:59.590Z,6.90
2019-02-21T03:53:41.696Z,6.90
2019-02-21T03:56:24.189Z,6.90
2019-02-21T03:59:05.930Z,6.90
2019-02-21T04:01:49.055Z,6.90
2019-02-21T04:04:31.646Z,6.90
2019-02-21T04:07:12.264Z,6.90
2019-02-21T04:10:01.653Z,6.80
2019-02-21T04:12:43.756Z,6.80
2019-02-21T04:15:26.546Z,6.80
2019-02-21T04:18:09.421Z,6.80
2019-02-21T04:20:51.829Z,6.80
2019-02-21T04:23:34.017Z,6.80
2019-02-21T04:26:16.525Z,6.80
2019-02-21T04:28:58.832Z,6.80
2019-02-21T04:31:41.091Z,6.80
2019-02-21T04:34:23.415Z,6.80
2019-02-21T04:37:05.995Z,6.70
2019-02-21T04:39:48.376Z,6.70
2019-02-21T04:42:30.321Z,6.70
2019-02-21T04:45:12.702Z,6.70
2019-02-21T04:47:55.113Z,6.70
2019-02-21T04:50:37.011Z,6.70
2019-02-21T04:53:19.461Z,6.70
2019-02-21T04:56:02.045Z,6.70
2019-02-21T04:58:44.686Z,6.60
2019-02-21T05:01:27.262Z,6.60
2019-02-21T05:04:09.945Z,6.60
2019-02-21T05:06:52.896Z,6.60
2019-02-21T05:09:34.957Z,6.60
2019-02-21T05:12:17.409Z,6.50
2019-02-21T05:14:59.289Z,6.60
2019-02-21T05:17:42.008Z,6.60
2019-02-21T05:20:25.054Z,6.60
2019-02-21T05:23:07.264Z,6.60
2019-02-21T05:25:50.180Z,6.60
2019-02-21T05:28:33.660Z,6.60
2019-02-21T05:34:36.291Z,6.60
2019-02-21T05:37:44.420Z,6.70
2019-02-21T05:40:46.062Z,6.70
2019-02-21T05:43:38.561Z,6.70
2019-02-21T05:46:40.020Z,6.70
2019-02-21T05:49:41.613Z,6.70
2019-02-21T05:52:46.066Z,6.70
2019-02-21T05:55:33.745Z,6.60
2019-02-21T05:58:30.358Z,6.60
2019-02-21T06:01:31.314Z,6.70
2019-02-21T06:04:25.191Z,6.80
2019-02-21T06:07:26.797Z,6.80
2019-02-21T06:10:51.207Z,6.80
2019-02-21T06:14:11.692Z,6.80
2019-02-21T06:20:30.533Z,6.90
2019-02-21T06:23:19.553Z,6.90
2019-02-21T06:26:07.183Z,6.90
2019-02-21T06:29:10.968Z,6.90
2019-02-21T06:31:51.409Z,6.80
2019-02-21T06:34:40.799Z,6.80
2019-02-21T06:37:23.021Z,6.80
2019-02-21T06:40:05.107Z,6.70
2019-02-21T06:42:46.949Z,6.60
2019-02-21T06:45:29.530Z,6.50
2019-02-21T06:48:12.083Z,6.50
2019-02-21T06:50:54.678Z,6.50
2019-02-21T06:56:17.741Z,6.60
2019-02-21T06:59:00.595Z,6.60
2019-02-21T07:01:43.470Z,6.60
2019-02-21T07:04:27.016Z,6.70
2019-02-21T07:07:09.672Z,6.70
2019-02-21T07:09:57.716Z,6.60
2019-02-21T07:12:40.271Z,6.60
2019-02-21T07:15:22.143Z,6.60
2019-02-21T07:18:04.116Z,6.60
2019-02-21T07:20:46.821Z,6.70
2019-02-21T07:23:40.618Z,6.60
2019-02-21T07:26:16.885Z,6.60
2019-02-21T07:28:59.396Z,6.60
2019-02-21T07:31:42.076Z,6.60
2019-02-21T07:34:24.893Z,6.70
2019-02-21T07:37:17.852Z,6.70
2019-02-21T07:39:51.051Z,6.70
2019-02-21T07:42:33.139Z,6.70
2019-02-21T07:45:16.057Z,6.70
2019-02-21T07:47:57.797Z,6.70
2019-02-21T07:50:39.861Z,6.70
2019-02-21T07:53:22.843Z,6.80
2019-02-21T07:56:05.756Z,6.80
2019-02-21T07:58:48.567Z,6.80
2019-02-21T08:01:31.100Z,6.90
2019-02-21T08:04:13.732Z,7.00
2019-02-21T08:06:56.308Z,7.00
2019-02-21T08:09:38.521Z,7.20
2019-02-21T08:12:19.698Z,7.30
2019-02-21T08:15:11.769Z,7.40
2019-02-21T08:18:00.782Z,7.40
2019-02-21T08:20:50.349Z,7.50
2019-02-21T08:23:32.692Z,7.60
2019-02-21T08:26:15.545Z,7.70
2019-02-21T08:28:57.850Z,7.60
2019-02-21T08:31:39.711Z,7.60
2019-02-21T08:34:26.039Z,7.60
2019-02-21T08:37:08.919Z,7.60
2019-02-21T08:39:50.647Z,7.70
2019-02-21T08:42:33.429Z,7.80
2019-02-21T08:45:17.709Z,7.90
2019-02-21T08:48:00.159Z,7.90
2019-02-21T08:50:42.814Z,7.80
2019-02-21T08:53:27.726Z,7.90
2019-02-21T08:56:08.886Z,8.00
2019-02-21T08:58:51.317Z,8.00
2019-02-21T09:01:33.138Z,8.00
2019-02-21T09:04:26.941Z,8.10
2019-02-21T09:06:59.515Z,8.20
2019-02-21T09:09:40.351Z,8.20
2019-02-21T09:12:41.383Z,8.20
2019-02-21T09:15:23.639Z,8.10
2019-02-21T09:18:06.445Z,8.00
2019-02-21T09:20:49.909Z,8.00
2019-02-21T09:23:32.458Z,7.90
2019-02-21T09:26:15.398Z,7.90
2019-02-21T09:28:58.412Z,7.90
2019-02-21T09:31:47.151Z,8.00
2019-02-21T09:34:27.538Z,7.90
2019-02-21T09:37:17.949Z,7.90
2019-02-21T09:40:00.409Z,7.90
2019-02-21T09:42:42.542Z,7.90
2019-02-21T09:45:25.487Z,8.00
2019-02-21T09:48:08.282Z,8.10
2019-02-21T09:50:52.785Z,8.20
2019-02-21T09:53:34.541Z,8.20
2019-02-21T09:56:15.316Z,8.30
2019-02-21T09:59:04.722Z,8.30
2019-02-21T10:01:49.666Z,8.40
2019-02-21T10:04:33.490Z,8.50
2019-02-21T10:07:16.669Z,8.60
2019-02-21T10:10:00.982Z,8.60
2019-02-21T10:12:45.826Z,8.40
2019-02-21T10:15:28.397Z,8.40
2019-02-21T10:18:11.842Z,8.50
2019-02-21T10:20:53.569Z,8.50
2019-02-21T10:23:35.623Z,8.60
2019-02-21T10:26:17.838Z,8.60
2019-02-21T10:29:00.399Z,8.60
2019-02-21T10:31:43.125Z,8.60
2019-02-21T10:34:25.876Z,8.70
2019-02-21T10:37:07.877Z,8.80
2019-02-21T10:39:50.347Z,8.90
2019-02-21T10:42:32.165Z,9.00
2019-02-21T10:45:14.265Z,9.10
2019-02-21T10:47:56.869Z,9.20
2019-02-21T10:50:39.557Z,9.50
2019-02-21T10:53:21.869Z,9.70
2019-02-21T10:56:03.945Z,9.70
2019-02-21T10:58:46.069Z,9.70
2019-02-21T11:01:28.371Z,9.60
2019-02-21T11:04:10.941Z,9.50
2019-02-21T11:06:54.056Z,9.60
2019-02-21T11:09:36.872Z,9.60
2019-02-21T11:12:18.807Z,9.60
2019-02-21T11:15:01.598Z,9.40
2019-02-21T11:17:44.193Z,9.30
2019-02-21T11:20:26.329Z,9.70
2019-02-21T11:23:09.383Z,9.90
2019-02-21T11:25:51.957Z,10.00
2019-02-21T11:28:34.533Z,9.80
2019-02-21T11:31:17.052Z,9.80
2019-02-21T11:33:59.409Z,10.20
2019-02-21T11:36:41.956Z,10.40
2019-02-21T11:39:24.432Z,10.40
2019-02-21T11:42:06.882Z,10.60
2019-02-21T11:44:50.001Z,10.60
2019-02-21T11:47:31.994Z,10.60
2019-02-21T11:50:14.879Z,10.80
2019-02-21T11:52:58.399Z,10.80
2019-02-21T11:55:41.033Z,11.00
2019-02-21T11:58:22.802Z,10.90
2019-02-21T12:01:04.624Z,11.00
2019-02-21T12:03:47.377Z,11.10
2019-02-21T12:06:29.731Z,11.10
2019-02-21T12:09:13.573Z,11.50
2019-02-21T12:11:56.321Z,11.80
2019-02-21T12:14:39.057Z,11.70
2019-02-21T12:17:22.060Z,11.50
2019-02-21T12:20:04.533Z,11.20
2019-02-21T12:22:46.316Z,11.00
2019-02-21T12:25:27.492Z,11.00
2019-02-21T12:28:16.841Z,10.90
2019-02-21T12:31:00.812Z,10.70
2019-02-21T12:33:43.020Z,10.80
2019-02-21T12:36:25.425Z,10.80
2019-02-21T12:39:07.204Z,10.80
2019-02-21T12:41:50.825Z,10.90
2019-02-21T12:44:32.679Z,11.00
2019-02-21T12:47:15.318Z,10.90
2019-02-21T12:49:57.696Z,10.90
2019-02-21T12:52:41.083Z,10.80
2019-02-21T12:55:29.321Z,10.80
2019-02-21T12:58:07.813Z,10.80
2019-02-21T13:00:50.421Z,10.70
2019-02-21T13:03:32.505Z,10.70
2019-02-21T13:06:15.506Z,10.70
2019-02-21T13:08:57.917Z,10.90
2019-02-21T13:11:40.565Z,10.90
2019-02-21T13:14:23.250Z,10.80
2019-02-21T13:17:05.205Z,10.80
2019-02-21T13:19:47.682Z,10.80
2019-02-21T13:22:30.611Z,10.70
2019-02-21T13:25:13.432Z,10.70
2019-02-21T13:27:55.597Z,10.60
2019-02-21T13:30:37.290Z,10.60
2019-02-21T13:33:20.426Z,10.70
2019-02-21T13:36:03.111Z,10.80
2019-02-21T13:38:45.398Z,10.80
2019-02-21T13:41:28.173Z,11.00
2019-02-21T13:44:10.111Z,11.00
2019-02-21T13:46:52.660Z,11.00
2019-02-21T13:49:35.045Z,11.00
2019-02-21T13:52:17.353Z,11.00
2019-02-21T13:54:59.677Z,10.90
2019-02-21T13:57:42.589Z,10.80
2019-02-21T14:00:25.495Z,10.90
2019-02-21T14:03:05.940Z,10.90
2019-02-21T14:06:03.252Z,10.90
2019-02-21T14:08:58.424Z,10.80
2019-02-21T14:11:40.691Z,10.80
2019-02-21T14:14:23.275Z,10.80
2019-02-21T14:17:06.291Z,10.90
2019-02-21T14:19:48.861Z,11.00
2019-02-21T14:22:31.077Z,11.10
2019-02-21T14:25:13.780Z,11.00
2019-02-21T14:27:55.601Z,10.90
2019-02-21T14:30:38.685Z,11.00
2019-02-21T14:33:20.820Z,11.00
2019-02-21T14:36:12.849Z,10.90
2019-02-21T14:38:47.084Z,10.90
2019-02-21T14:41:29.049Z,10.70
2019-02-21T14:44:10.973Z,10.70
2019-02-21T14:46:53.327Z,10.60
2019-02-21T14:49:35.337Z,10.50
2019-02-21T14:52:17.440Z,10.40
2019-02-21T14:54:59.306Z,10.20
2019-02-21T14:57:42.155Z,10.20
2019-02-21T15:00:24.649Z,10.20
2019-02-21T15:03:06.873Z,10.10
2019-02-21T15:05:48.635Z,9.80
2019-02-21T15:08:31.249Z,9.70
2019-02-21T15:11:13.830Z,9.50
2019-02-21T15:13:56.752Z,9.50
2019-02-21T15:16:39.183Z,9.50
2019-02-21T15:19:21.869Z,9.50
2019-02-21T15:22:04.405Z,9.50
2019-02-21T15:24:46.947Z,9.50
2019-02-21T15:27:29.221Z,9.50
2019-02-21T15:30:12.060Z,9.40
2019-02-21T15:32:54.136Z,9.30
2019-02-21T15:35:36.348Z,9.30
2019-02-21T15:38:20.145Z,9.30
2019-02-21T15:41:02.952Z,9.30
2019-02-21T15:43:44.897Z,9.20
2019-02-21T15:46:26.991Z,9.20
2019-02-21T15:49:09.465Z,9.20
2019-02-21T15:51:51.633Z,9.30
2019-02-21T15:54:33.972Z,9.20
2019-02-21T15:57:16.581Z,9.30
2019-02-21T15:59:59.106Z,9.20
2019-02-21T16:02:40.908Z,9.30
2019-02-21T16:05:23.412Z,9.30
2019-02-21T16:08:05.513Z,9.30
2019-02-21T16:10:48.610Z,9.20
2019-02-21T16:13:30.850Z,9.20
2019-02-21T16:16:13.071Z,9.20
2019-02-21T16:18:55.042Z,9.30
2019-02-21T16:21:37.493Z,9.30
2019-02-21T16:24:18.053Z,9.30
2019-02-21T16:27:07.436Z,9.30
2019-02-21T16:29:49.813Z,9.40
2019-02-21T16:32:32.002Z,9.30
2019-02-21T16:35:14.148Z,9.30
2019-02-21T16:37:56.025Z,9.30
2019-02-21T16:40:37.957Z,9.30
2019-02-21T16:43:20.550Z,9.30
2019-02-21T16:46:07.848Z,9.30
2019-02-21T16:48:47.726Z,9.20
2019-02-21T16:51:28.649Z,9.20
2019-02-21T16:54:18.204Z,9.20
2019-02-21T16:57:00.937Z,9.20
2019-02-21T16:59:43.601Z,9.20
2019-02-21T17:02:25.348Z,9.30
2019-02-21T17:05:07.705Z,9.30
2019-02-21T17:07:50.860Z,9.30
2019-02-21T17:10:21.866Z,9.30
2019-02-21T17:13:11.473Z,9.30
2019-02-21T17:15:53.673Z,9.40
2019-02-21T17:18:36.138Z,9.30
2019-02-21T17:21:21.117Z,9.40
2019-02-21T17:24:03.362Z,9.40
2019-02-21T17:26:45.767Z,9.40
2019-02-21T17:29:27.752Z,9.40
2019-02-21T17:32:11.581Z,9.40
2019-02-21T17:34:54.187Z,9.40
2019-02-21T17:37:36.384Z,9.40
2019-02-21T17:40:18.946Z,9.40
2019-02-21T17:43:01.660Z,9.40
2019-02-21T17:45:43.840Z,9.50
2019-02-21T17:48:26.116Z,9.50
2019-02-21T17:51:09.585Z,9.50
2019-02-21T17:53:52.917Z,9.50
2019-02-21T17:56:35.513Z,9.40
2019-02-21T17:59:18.317Z,9.40
2019-02-21T18:02:00.759Z,9.40
2019-02-21T18:04:42.932Z,9.40
2019-02-21T18:07:35.823Z,9.30
2019-02-21T18:10:08.814Z,9.30
2019-02-21T18:12:51.751Z,9.30
2019-02-21T18:15:35.412Z,9.30
2019-02-21T18:18:17.999Z,9.40
2019-02-21T18:21:00.040Z,9.30
2019-02-21T18:23:41.733Z,9.20
2019-02-21T18:26:24.825Z,9.20
2019-02-21T18:29:07.371Z,9.20
2019-02-21T18:31:50.137Z,9.20
2019-02-21T18:34:32.994Z,9.20
2019-02-21T18:37:15.626Z,9.10
2019-02-21T18:39:57.787Z,9.10
2019-02-21T18:42:39.641Z,9.10
2019-02-21T18:45:21.814Z,9.10
2019-02-21T18:48:03.921Z,9.10
2019-02-21T18:50:45.189Z,9.20
2019-02-21T18:53:35.569Z,9.10
2019-02-21T18:56:17.808Z,9.10
2019-02-21T18:59:00.036Z,9.10
2019-02-21T19:01:42.747Z,9.10
2019-02-21T19:04:25.005Z,9.10
2019-02-21T19:07:07.245Z,9.10
2019-02-21T19:09:48.904Z,9.00
2019-02-21T19:12:31.313Z,9.00
2019-02-21T19:15:13.245Z,9.00
2019-02-21T19:17:55.364Z,9.10
2019-02-21T19:20:37.815Z,9.10
2019-02-21T19:23:21.067Z,9.10
2019-02-21T19:26:03.360Z,9.10
2019-02-21T19:28:45.987Z,9.10
2019-02-21T19:31:28.172Z,9.10
2019-02-21T19:34:10.815Z,9.10
2019-02-21T19:36:53.537Z,9.20
2019-02-21T19:39:37.073Z,9.20
2019-02-21T19:42:19.577Z,9.20
2019-02-21T19:45:01.901Z,9.20
2019-02-21T19:47:43.647Z,9.20
2019-02-21T19:50:33.105Z,9.20
2019-02-21T19:53:14.550Z,9.20
2019-02-21T19:56:04.428Z,9.20
2019-02-21T19:58:46.088Z,9.20
2019-02-21T20:01:26.573Z,9.10
2019-02-21T20:07:24.601Z,9.10
2019-02-21T20:10:07.254Z,9.00
2019-02-21T20:12:50.495Z,9.10
2019-02-21T20:15:33.741Z,9.10
2019-02-21T20:18:15.895Z,9.10
2019-02-21T20:20:59.557Z,9.10
2019-02-21T20:23:42.423Z,9.20
2019-02-21T20:26:24.738Z,9.10
2019-02-21T20:29:07.007Z,9.10
2019-02-21T20:31:49.584Z,9.10
2019-02-21T20:34:31.598Z,9.10
2019-02-21T20:37:13.425Z,9.00
2019-02-21T20:39:55.130Z,9.00
2019-02-21T20:42:45.869Z,9.10
2019-02-21T20:45:53.107Z,9.10
2019-02-21T20:48:30.785Z,9.10
2019-02-21T20:51:12.981Z,9.10
2019-02-21T20:53:55.638Z,9.10
2019-02-21T20:56:37.561Z,9.00
2019-02-21T20:59:19.941Z,9.10
2019-02-21T21:02:02.697Z,9.10
2019-02-21T21:04:45.660Z,9.10
2019-02-21T21:07:28.072Z,9.10
2019-02-21T21:10:12.173Z,9.10
2019-02-21T21:12:54.755Z,9.10
2019-02-21T21:15:37.345Z,9.10
2019-02-21T21:18:20.126Z,9.20
2019-02-21T21:21:02.853Z,9.20
2019-02-21T21:26:42.423Z,9.00
2019-02-21T21:29:25.386Z,9.00
2019-02-21T21:32:19.279Z,9.00
2019-02-21T21:35:09.007Z,9.00
2019-02-21T21:37:51.341Z,8.90
2019-02-21T21:40:34.108Z,8.90
2019-02-21T21:43:16.592Z,8.90
2019-02-21T21:45:59.215Z,8.90
2019-02-21T21:48:41.229Z,8.90
2019-02-21T21:51:23.387Z,8.90
2019-02-21T21:54:06.225Z,8.90
2019-02-21T21:56:48.768Z,8.90
2019-02-21T21:59:31.484Z,8.90
2019-02-21T22:02:13.775Z,9.00
2019-02-21T22:04:56.254Z,8.90
2019-02-21T22:07:38.153Z,8.90
2019-02-21T22:10:20.541Z,8.90
2019-02-21T22:13:02.706Z,9.00
2019-02-21T22:15:44.569Z,9.00
2019-02-21T22:18:26.941Z,9.00
2019-02-21T22:21:09.376Z,9.10
2019-02-21T22:23:52.407Z,9.10
2019-02-21T22:26:34.181Z,9.00
2019-02-21T22:29:16.848Z,9.00
2019-02-21T22:31:59.549Z,9.00
2019-02-21T22:34:42.052Z,9.10
2019-02-21T22:37:24.407Z,9.10
2019-02-21T22:40:06.896Z,9.10
2019-02-21T22:42:48.676Z,9.00
2019-02-21T22:45:31.128Z,9.00
2019-02-21T22:48:13.156Z,8.90
2019-02-21T22:50:55.339Z,9.00
2019-02-21T22:53:37.621Z,9.00
2019-02-21T22:56:20.276Z,8.90
2019-02-21T22:59:01.973Z,8.90
2019-02-21T23:01:44.248Z,8.90
2019-02-21T23:04:27.011Z,8.90
2019-02-21T23:07:09.393Z,8.90
2019-02-21T23:09:52.029Z,8.80
2019-02-21T23:12:35.495Z,8.80
2019-02-21T23:15:17.356Z,8.90
2019-02-21T23:18:07.648Z,8.80
2019-02-21T23:20:49.609Z,8.90
2019-02-21T23:23:31.564Z,8.90
2019-02-21T23:26:14.165Z,8.90
2019-02-21T23:28:56.553Z,8.80
2019-02-21T23:31:38.841Z,8.90
2019-02-21T23:37:57.724Z,8.90
2019-02-21T23:40:39.801Z,9.00
2019-02-21T23:43:22.588Z,9.00
2019-02-21T23:46:05.344Z,9.00
2019-02-21T23:48:48.023Z,8.90
2019-02-21T23:51:30.596Z,8.90
2019-02-21T23:54:13.254Z,8.90
2019-02-21T23:56:55.573Z,8.90
2019-02-21T23:59:37.509Z,8.90
